sensor_id;sensor_type;location;lat;lon;timestamp;P1;durP1;ratioP1;P2;durP2;ratioP2
7239;SDS011;3661;53.288;10.458;2023-08-30T00:01:21;1595.68;;;999.90;;
7239;SDS011;3661;53.288;10.458;2023-08-30T00:03:53;1596.18;;;999.90;;
7239;SDS011;3661;53.288;10.458;2023-08-30T00:06:26;1612.72;;;999.90;;
7239;SDS011;3661;53.288;10.458;2023-08-30T00:08:58;1572.10;;;999.90;;
7239;SDS011;3661;53.288;10.458;2023-08-30T00:11:30;1609.65;;;999.90;;
7239;SDS011;3661;53.288;10.458;2023-08-30T00:14:05;1603.97;;;999.90;;
7239;SDS011;3661;53.288;10.458;2023-08-30T00:16:38;1616.85;;;999.90;;
7239;SDS011;3661;53.288;10.458;2023-08-30T00:19:10;1616.80;;;999.90;;
7239;SDS011;3661;53.288;10.458;2023-08-30T00:21:46;1599.37;;;999.90;;
7239;SDS011;3661;53.288;10.458;2023-08-30T00:24:22;1612.82;;;999.90;;
7239;SDS011;3661;53.288;10.458;2023-08-30T00:26:54;1610.28;;;999.90;;
7239;SDS011;3661;53.288;10.458;2023-08-30T00:29:31;1596.77;;;999.90;;
7239;SDS011;3661;53.288;10.458;2023-08-30T00:32:03;1610.50;;;999.90;;
7239;SDS011;3661;53.288;10.458;2023-08-30T00:34:39;1594.78;;;999.90;;
7239;SDS011;3661;53.288;10.458;2023-08-30T00:37:14;1609.25;;;999.90;;
7239;SDS011;3661;53.288;10.458;2023-08-30T00:39:46;1589.15;;;999.90;;
7239;SDS011;3661;53.288;10.458;2023-08-30T00:42:18;1614.15;;;999.90;;
7239;SDS011;3661;53.288;10.458;2023-08-30T00:44:53;1599.85;;;999.90;;
7239;SDS011;3661;53.288;10.458;2023-08-30T00:47:25;1602.53;;;999.90;;
7239;SDS011;3661;53.288;10.458;2023-08-30T00:50:00;1591.20;;;999.90;;
7239;SDS011;3661;53.288;10.458;2023-08-30T00:52:33;1577.65;;;999.90;;
7239;SDS011;3661;53.288;10.458;2023-08-30T00:55:07;1607.57;;;999.90;;
7239;SDS011;3661;53.288;10.458;2023-08-30T00:57:41;1588.15;;;999.90;;
7239;SDS011;3661;53.288;10.458;2023-08-30T01:00:16;1589.15;;;999.90;;
7239;SDS011;3661;53.288;10.458;2023-08-30T01:02:49;1570.63;;;999.90;;
7239;SDS011;3661;53.288;10.458;2023-08-30T01:05:23;1576.63;;;999.90;;
7239;SDS011;3661;53.288;10.458;2023-08-30T01:07:55;1586.35;;;999.90;;
7239;SDS011;3661;53.288;10.458;2023-08-30T01:10:30;1578.00;;;999.90;;
7239;SDS011;3661;53.288;10.458;2023-08-30T01:13:08;1589.00;;;999.90;;
7239;SDS011;3661;53.288;10.458;2023-08-30T01:15:45;1576.75;;;999.90;;
7239;SDS011;3661;53.288;10.458;2023-08-30T01:18:18;1579.15;;;999.90;;
7239;SDS011;3661;53.288;10.458;2023-08-30T01:20:54;1551.70;;;999.90;;
7239;SDS011;3661;53.288;10.458;2023-08-30T01:23:39;1572.03;;;999.90;;
7239;SDS011;3661;53.288;10.458;2023-08-30T01:26:20;1563.35;;;999.90;;
7239;SDS011;3661;53.288;10.458;2023-08-30T01:29:01;1547.65;;;999.90;;
7239;SDS011;3661;53.288;10.458;2023-08-30T01:31:35;1562.90;;;999.90;;
7239;SDS011;3661;53.288;10.458;2023-08-30T01:34:10;1579.32;;;999.90;;
7239;SDS011;3661;53.288;10.458;2023-08-30T01:36:43;1569.72;;;999.90;;
7239;SDS011;3661;53.288;10.458;2023-08-30T01:39:18;1537.53;;;999.90;;
7239;SDS011;3661;53.288;10.458;2023-08-30T01:41:52;1570.70;;;999.90;;
7239;SDS011;3661;53.288;10.458;2023-08-30T01:44:30;1543.37;;;999.90;;
7239;SDS011;3661;53.288;10.458;2023-08-30T01:47:03;1537.57;;;999.90;;
7239;SDS011;3661;53.288;10.458;2023-08-30T01:49:36;1521.47;;;999.90;;
7239;SDS011;3661;53.288;10.458;2023-08-30T01:52:10;1533.35;;;999.90;;
7239;SDS011;3661;53.288;10.458;2023-08-30T01:54:44;1543.30;;;999.90;;
7239;SDS011;3661;53.288;10.458;2023-08-30T01:57:19;1518.15;;;999.90;;
7239;SDS011;3661;53.288;10.458;2023-08-30T01:59:52;1528.97;;;999.90;;
7239;SDS011;3661;53.288;10.458;2023-08-30T02:02:28;1517.30;;;999.90;;
7239;SDS011;3661;53.288;10.458;2023-08-30T02:05:01;1524.10;;;999.90;;
7239;SDS011;3661;53.288;10.458;2023-08-30T02:07:35;1542.05;;;999.90;;
7239;SDS011;3661;53.288;10.458;2023-08-30T02:10:10;1535.40;;;999.90;;
7239;SDS011;3661;53.288;10.458;2023-08-30T02:12:47;1527.57;;;999.90;;
7239;SDS011;3661;53.288;10.458;2023-08-30T02:18:20;1513.32;;;999.90;;
7239;SDS011;3661;53.288;10.458;2023-08-30T02:21:05;1502.17;;;999.90;;
7239;SDS011;3661;53.288;10.458;2023-08-30T02:23:59;1529.03;;;999.90;;
7239;SDS011;3661;53.288;10.458;2023-08-30T02:26:52;1526.38;;;999.90;;
7239;SDS011;3661;53.288;10.458;2023-08-30T02:30:00;1507.88;;;999.90;;
7239;SDS011;3661;53.288;10.458;2023-08-30T02:35:32;1532.10;;;999.90;;
7239;SDS011;3661;53.288;10.458;2023-08-30T02:38:05;1507.97;;;999.90;;
7239;SDS011;3661;53.288;10.458;2023-08-30T02:40:50;1516.30;;;999.90;;
7239;SDS011;3661;53.288;10.458;2023-08-30T02:43:23;1529.32;;;999.90;;
7239;SDS011;3661;53.288;10.458;2023-08-30T02:45:55;1522.25;;;999.90;;
7239;SDS011;3661;53.288;10.458;2023-08-30T02:48:32;1521.15;;;999.90;;
7239;SDS011;3661;53.288;10.458;2023-08-30T02:51:05;1522.28;;;999.90;;
7239;SDS011;3661;53.288;10.458;2023-08-30T02:53:37;1515.43;;;999.90;;
7239;SDS011;3661;53.288;10.458;2023-08-30T02:56:09;1520.80;;;999.90;;
7239;SDS011;3661;53.288;10.458;2023-08-30T02:58:43;1511.40;;;999.90;;
7239;SDS011;3661;53.288;10.458;2023-08-30T03:01:15;1517.70;;;999.90;;
7239;SDS011;3661;53.288;10.458;2023-08-30T03:06:55;1511.05;;;999.90;;
7239;SDS011;3661;53.288;10.458;2023-08-30T03:13:57;1499.85;;;999.90;;
7239;SDS011;3661;53.288;10.458;2023-08-30T03:16:11;1502.83;;;999.90;;
7239;SDS011;3661;53.288;10.458;2023-08-30T03:18:43;1513.97;;;999.90;;
7239;SDS011;3661;53.288;10.458;2023-08-30T03:24:18;1484.75;;;999.90;;
7239;SDS011;3661;53.288;10.458;2023-08-30T03:26:51;1495.88;;;999.90;;
7239;SDS011;3661;53.288;10.458;2023-08-30T03:29:24;1496.30;;;999.90;;
7239;SDS011;3661;53.288;10.458;2023-08-30T03:31:57;1486.43;;;999.90;;
7239;SDS011;3661;53.288;10.458;2023-08-30T03:34:36;1500.07;;;999.90;;
7239;SDS011;3661;53.288;10.458;2023-08-30T03:37:10;1475.50;;;999.90;;
7239;SDS011;3661;53.288;10.458;2023-08-30T03:39:43;1461.40;;;999.90;;
7239;SDS011;3661;53.288;10.458;2023-08-30T03:42:15;1477.25;;;999.90;;
7239;SDS011;3661;53.288;10.458;2023-08-30T03:44:48;1478.57;;;999.90;;
7239;SDS011;3661;53.288;10.458;2023-08-30T03:47:20;1478.50;;;999.90;;
7239;SDS011;3661;53.288;10.458;2023-08-30T03:49:59;1475.07;;;999.90;;
7239;SDS011;3661;53.288;10.458;2023-08-30T03:52:33;1478.15;;;999.90;;
7239;SDS011;3661;53.288;10.458;2023-08-30T03:55:06;1486.22;;;999.90;;
7239;SDS011;3661;53.288;10.458;2023-08-30T03:57:39;1486.72;;;999.90;;
7239;SDS011;3661;53.288;10.458;2023-08-30T04:00:11;1486.18;;;999.90;;
7239;SDS011;3661;53.288;10.458;2023-08-30T04:02:44;1494.15;;;999.90;;
7239;SDS011;3661;53.288;10.458;2023-08-30T04:05:16;1490.32;;;999.90;;
7239;SDS011;3661;53.288;10.458;2023-08-30T04:07:50;1483.38;;;999.90;;
7239;SDS011;3661;53.288;10.458;2023-08-30T04:10:22;1475.63;;;999.90;;
7239;SDS011;3661;53.288;10.458;2023-08-30T04:12:55;1462.68;;;999.90;;
7239;SDS011;3661;53.288;10.458;2023-08-30T04:15:27;1476.13;;;999.90;;
7239;SDS011;3661;53.288;10.458;2023-08-30T04:18:00;1456.87;;;999.90;;
7239;SDS011;3661;53.288;10.458;2023-08-30T04:20:32;1475.95;;;999.90;;
7239;SDS011;3661;53.288;10.458;2023-08-30T04:23:06;1476.95;;;999.90;;
7239;SDS011;3661;53.288;10.458;2023-08-30T04:25:41;1471.40;;;999.90;;
7239;SDS011;3661;53.288;10.458;2023-08-30T04:28:14;1455.93;;;999.90;;
7239;SDS011;3661;53.288;10.458;2023-08-30T04:30:46;1468.05;;;999.90;;
7239;SDS011;3661;53.288;10.458;2023-08-30T04:33:19;1435.45;;;999.90;;
7239;SDS011;3661;53.288;10.458;2023-08-30T04:35:51;1466.22;;;999.90;;
7239;SDS011;3661;53.288;10.458;2023-08-30T04:38:26;1472.32;;;999.90;;
7239;SDS011;3661;53.288;10.458;2023-08-30T04:40:58;1458.22;;;999.90;;
7239;SDS011;3661;53.288;10.458;2023-08-30T04:43:32;1457.47;;;999.90;;
7239;SDS011;3661;53.288;10.458;2023-08-30T04:46:04;1463.38;;;999.90;;
7239;SDS011;3661;53.288;10.458;2023-08-30T04:48:37;1463.07;;;999.90;;
7239;SDS011;3661;53.288;10.458;2023-08-30T04:51:09;1462.55;;;999.90;;
7239;SDS011;3661;53.288;10.458;2023-08-30T04:53:44;1459.97;;;999.90;;
7239;SDS011;3661;53.288;10.458;2023-08-30T04:56:16;1460.60;;;999.90;;
7239;SDS011;3661;53.288;10.458;2023-08-30T04:59:07;1445.78;;;999.90;;
7239;SDS011;3661;53.288;10.458;2023-08-30T05:01:46;1469.65;;;999.90;;
7239;SDS011;3661;53.288;10.458;2023-08-30T05:04:21;1473.50;;;999.90;;
7239;SDS011;3661;53.288;10.458;2023-08-30T05:06:55;1482.17;;;999.90;;
7239;SDS011;3661;53.288;10.458;2023-08-30T05:12:41;1446.18;;;999.90;;
7239;SDS011;3661;53.288;10.458;2023-08-30T05:15:18;1463.57;;;999.90;;
7239;SDS011;3661;53.288;10.458;2023-08-30T05:17:50;1477.57;;;999.90;;
7239;SDS011;3661;53.288;10.458;2023-08-30T05:20:23;1469.10;;;999.90;;
7239;SDS011;3661;53.288;10.458;2023-08-30T05:22:56;1486.93;;;999.90;;
7239;SDS011;3661;53.288;10.458;2023-08-30T05:25:30;1485.20;;;999.90;;
7239;SDS011;3661;53.288;10.458;2023-08-30T05:28:07;1478.18;;;999.90;;
7239;SDS011;3661;53.288;10.458;2023-08-30T05:30:46;1475.00;;;999.90;;
7239;SDS011;3661;53.288;10.458;2023-08-30T05:33:27;1485.60;;;999.90;;
7239;SDS011;3661;53.288;10.458;2023-08-30T05:36:14;1492.88;;;999.90;;
7239;SDS011;3661;53.288;10.458;2023-08-30T05:39:01;1495.40;;;999.90;;
7239;SDS011;3661;53.288;10.458;2023-08-30T05:45:46;1510.93;;;999.90;;
7239;SDS011;3661;53.288;10.458;2023-08-30T05:48:54;1506.13;;;999.90;;
7239;SDS011;3661;53.288;10.458;2023-08-30T05:51:53;1518.60;;;999.90;;
7239;SDS011;3661;53.288;10.458;2023-08-30T05:55:09;1518.40;;;999.90;;
7239;SDS011;3661;53.288;10.458;2023-08-30T05:58:03;1502.57;;;999.90;;
7239;SDS011;3661;53.288;10.458;2023-08-30T06:04:10;1517.70;;;999.90;;
7239;SDS011;3661;53.288;10.458;2023-08-30T06:06:43;1544.97;;;999.90;;
7239;SDS011;3661;53.288;10.458;2023-08-30T06:09:17;1541.95;;;999.90;;
7239;SDS011;3661;53.288;10.458;2023-08-30T06:11:49;1558.40;;;999.90;;
7239;SDS011;3661;53.288;10.458;2023-08-30T06:14:21;1558.35;;;999.90;;
7239;SDS011;3661;53.288;10.458;2023-08-30T06:16:54;1543.10;;;999.90;;
7239;SDS011;3661;53.288;10.458;2023-08-30T06:19:30;1545.90;;;999.90;;
7239;SDS011;3661;53.288;10.458;2023-08-30T06:22:02;1592.53;;;999.90;;
7239;SDS011;3661;53.288;10.458;2023-08-30T06:24:34;1585.30;;;999.90;;
7239;SDS011;3661;53.288;10.458;2023-08-30T06:27:06;1587.20;;;999.90;;
7239;SDS011;3661;53.288;10.458;2023-08-30T06:29:40;1607.55;;;999.90;;
7239;SDS011;3661;53.288;10.458;2023-08-30T06:32:13;1606.78;;;999.90;;
7239;SDS011;3661;53.288;10.458;2023-08-30T06:34:49;1604.25;;;999.90;;
7239;SDS011;3661;53.288;10.458;2023-08-30T06:37:26;1588.57;;;999.90;;
7239;SDS011;3661;53.288;10.458;2023-08-30T06:39:58;1584.75;;;999.90;;
7239;SDS011;3661;53.288;10.458;2023-08-30T06:42:33;1608.03;;;999.90;;
7239;SDS011;3661;53.288;10.458;2023-08-30T06:45:06;1603.83;;;999.90;;
7239;SDS011;3661;53.288;10.458;2023-08-30T06:47:38;1629.78;;;999.90;;
7239;SDS011;3661;53.288;10.458;2023-08-30T06:50:21;1613.25;;;999.90;;
7239;SDS011;3661;53.288;10.458;2023-08-30T06:52:56;1599.03;;;999.90;;
7239;SDS011;3661;53.288;10.458;2023-08-30T06:55:29;1640.40;;;999.90;;
7239;SDS011;3661;53.288;10.458;2023-08-30T06:58:02;1634.22;;;999.90;;
7239;SDS011;3661;53.288;10.458;2023-08-30T07:00:34;1642.25;;;999.90;;
7239;SDS011;3661;53.288;10.458;2023-08-30T07:03:07;1651.18;;;999.90;;
7239;SDS011;3661;53.288;10.458;2023-08-30T07:05:40;1666.30;;;999.90;;
7239;SDS011;3661;53.288;10.458;2023-08-30T07:08:13;1640.43;;;999.90;;
7239;SDS011;3661;53.288;10.458;2023-08-30T07:10:46;1661.40;;;999.90;;
7239;SDS011;3661;53.288;10.458;2023-08-30T07:13:18;1666.27;;;999.90;;
7239;SDS011;3661;53.288;10.458;2023-08-30T07:15:50;1671.60;;;999.90;;
7239;SDS011;3661;53.288;10.458;2023-08-30T07:18:23;1651.47;;;999.90;;
7239;SDS011;3661;53.288;10.458;2023-08-30T07:21:01;1685.85;;;999.90;;
7239;SDS011;3661;53.288;10.458;2023-08-30T07:23:35;1694.15;;;999.90;;
7239;SDS011;3661;53.288;10.458;2023-08-30T07:26:09;1678.40;;;999.90;;
7239;SDS011;3661;53.288;10.458;2023-08-30T07:28:41;1702.38;;;999.90;;
7239;SDS011;3661;53.288;10.458;2023-08-30T07:31:13;1706.22;;;999.90;;
7239;SDS011;3661;53.288;10.458;2023-08-30T07:33:50;1722.53;;;999.90;;
7239;SDS011;3661;53.288;10.458;2023-08-30T07:36:23;1725.70;;;999.90;;
7239;SDS011;3661;53.288;10.458;2023-08-30T07:38:56;1712.10;;;999.90;;
7239;SDS011;3661;53.288;10.458;2023-08-30T07:41:28;1732.82;;;999.90;;
7239;SDS011;3661;53.288;10.458;2023-08-30T07:44:03;1728.87;;;999.90;;
7239;SDS011;3661;53.288;10.458;2023-08-30T07:46:35;1757.90;;;999.90;;
7239;SDS011;3661;53.288;10.458;2023-08-30T07:49:07;1745.73;;;999.90;;
7239;SDS011;3661;53.288;10.458;2023-08-30T07:51:41;1737.85;;;999.90;;
7239;SDS011;3661;53.288;10.458;2023-08-30T07:54:14;1767.38;;;999.90;;
7239;SDS011;3661;53.288;10.458;2023-08-30T07:56:46;1751.18;;;999.90;;
7239;SDS011;3661;53.288;10.458;2023-08-30T07:59:18;1766.55;;;999.90;;
7239;SDS011;3661;53.288;10.458;2023-08-30T08:01:55;1783.93;;;999.90;;
7239;SDS011;3661;53.288;10.458;2023-08-30T08:04:27;1780.13;;;999.90;;
7239;SDS011;3661;53.288;10.458;2023-08-30T08:07:00;1782.85;;;999.90;;
7239;SDS011;3661;53.288;10.458;2023-08-30T08:09:33;1786.55;;;999.90;;
7239;SDS011;3661;53.288;10.458;2023-08-30T08:12:05;1824.00;;;999.90;;
7239;SDS011;3661;53.288;10.458;2023-08-30T08:14:38;1819.72;;;999.90;;
7239;SDS011;3661;53.288;10.458;2023-08-30T08:17:12;1836.72;;;999.90;;
7239;SDS011;3661;53.288;10.458;2023-08-30T08:19:44;1819.22;;;999.90;;
7239;SDS011;3661;53.288;10.458;2023-08-30T08:22:18;1825.97;;;999.90;;
7239;SDS011;3661;53.288;10.458;2023-08-30T08:24:50;1826.00;;;999.90;;
7239;SDS011;3661;53.288;10.458;2023-08-30T08:27:24;1863.37;;;999.90;;
7239;SDS011;3661;53.288;10.458;2023-08-30T08:29:56;1860.25;;;999.90;;
7239;SDS011;3661;53.288;10.458;2023-08-30T08:32:28;1857.53;;;999.90;;
7239;SDS011;3661;53.288;10.458;2023-08-30T08:35:00;1886.63;;;999.90;;
7239;SDS011;3661;53.288;10.458;2023-08-30T08:37:45;1886.07;;;999.90;;
7239;SDS011;3661;53.288;10.458;2023-08-30T08:40:28;1903.33;;;999.90;;
7239;SDS011;3661;53.288;10.458;2023-08-30T08:43:01;1907.03;;;999.90;;
7239;SDS011;3661;53.288;10.458;2023-08-30T08:45:35;1915.88;;;999.90;;
7239;SDS011;3661;53.288;10.458;2023-08-30T08:48:10;1925.57;;;999.90;;
7239;SDS011;3661;53.288;10.458;2023-08-30T08:50:44;1925.65;;;999.90;;
7239;SDS011;3661;53.288;10.458;2023-08-30T08:53:18;1957.35;;;999.90;;
7239;SDS011;3661;53.288;10.458;2023-08-30T08:55:51;1959.90;;;999.90;;
7239;SDS011;3661;53.288;10.458;2023-08-30T08:58:25;1963.65;;;999.90;;
7239;SDS011;3661;53.288;10.458;2023-08-30T09:00:58;1963.00;;;999.90;;
7239;SDS011;3661;53.288;10.458;2023-08-30T09:03:32;1980.65;;;999.90;;
7239;SDS011;3661;53.288;10.458;2023-08-30T09:06:06;1985.50;;;999.90;;
7239;SDS011;3661;53.288;10.458;2023-08-30T09:08:40;1998.10;;;999.90;;
7239;SDS011;3661;53.288;10.458;2023-08-30T09:11:12;1997.05;;;999.90;;
7239;SDS011;3661;53.288;10.458;2023-08-30T09:13:46;1999.90;;;999.90;;
7239;SDS011;3661;53.288;10.458;2023-08-30T09:16:19;1999.90;;;999.90;;
7239;SDS011;3661;53.288;10.458;2023-08-30T09:18:57;1999.90;;;999.90;;
7239;SDS011;3661;53.288;10.458;2023-08-30T09:21:30;1999.90;;;999.90;;
7239;SDS011;3661;53.288;10.458;2023-08-30T09:24:04;1999.90;;;999.90;;
7239;SDS011;3661;53.288;10.458;2023-08-30T09:26:46;1999.90;;;999.90;;
7239;SDS011;3661;53.288;10.458;2023-08-30T09:29:20;1999.90;;;999.90;;
7239;SDS011;3661;53.288;10.458;2023-08-30T09:31:53;1999.90;;;999.90;;
7239;SDS011;3661;53.288;10.458;2023-08-30T09:34:26;1999.90;;;999.90;;
7239;SDS011;3661;53.288;10.458;2023-08-30T09:36:59;1999.90;;;999.90;;
7239;SDS011;3661;53.288;10.458;2023-08-30T09:39:33;1999.90;;;999.90;;
7239;SDS011;3661;53.288;10.458;2023-08-30T09:42:06;1999.90;;;999.90;;
7239;SDS011;3661;53.288;10.458;2023-08-30T09:44:39;1999.90;;;999.90;;
7239;SDS011;3661;53.288;10.458;2023-08-30T09:47:12;1999.90;;;999.90;;
7239;SDS011;3661;53.288;10.458;2023-08-30T09:49:45;1999.90;;;999.90;;
7239;SDS011;3661;53.288;10.458;2023-08-30T09:52:18;1999.90;;;999.90;;
7239;SDS011;3661;53.288;10.458;2023-08-30T09:54:56;1999.90;;;999.90;;
7239;SDS011;3661;53.288;10.458;2023-08-30T09:57:28;1999.90;;;999.90;;
7239;SDS011;3661;53.288;10.458;2023-08-30T10:00:01;1999.90;;;999.90;;
7239;SDS011;3661;53.288;10.458;2023-08-30T10:02:34;1999.90;;;999.90;;
7239;SDS011;3661;53.288;10.458;2023-08-30T10:05:07;1999.90;;;999.90;;
7239;SDS011;3661;53.288;10.458;2023-08-30T10:07:40;1999.90;;;999.90;;
7239;SDS011;3661;53.288;10.458;2023-08-30T10:10:14;1999.90;;;999.90;;
7239;SDS011;3661;53.288;10.458;2023-08-30T10:12:47;1999.90;;;999.90;;
7239;SDS011;3661;53.288;10.458;2023-08-30T10:15:20;1999.90;;;999.90;;
7239;SDS011;3661;53.288;10.458;2023-08-30T10:17:57;1999.90;;;999.90;;
7239;SDS011;3661;53.288;10.458;2023-08-30T10:20:30;1999.90;;;999.90;;
7239;SDS011;3661;53.288;10.458;2023-08-30T10:23:05;1999.90;;;999.90;;
7239;SDS011;3661;53.288;10.458;2023-08-30T10:25:40;1999.90;;;999.90;;
7239;SDS011;3661;53.288;10.458;2023-08-30T10:28:13;1999.90;;;999.90;;
7239;SDS011;3661;53.288;10.458;2023-08-30T10:30:46;1999.90;;;999.90;;
7239;SDS011;3661;53.288;10.458;2023-08-30T10:33:20;1999.90;;;999.90;;
7239;SDS011;3661;53.288;10.458;2023-08-30T10:36:04;1999.90;;;999.90;;
7239;SDS011;3661;53.288;10.458;2023-08-30T10:38:48;1999.90;;;999.90;;
7239;SDS011;3661;53.288;10.458;2023-08-30T10:41:23;1999.90;;;999.90;;
7239;SDS011;3661;53.288;10.458;2023-08-30T10:43:56;1999.90;;;999.90;;
7239;SDS011;3661;53.288;10.458;2023-08-30T10:46:31;1999.90;;;999.90;;
7239;SDS011;3661;53.288;10.458;2023-08-30T10:49:14;1999.90;;;999.90;;
7239;SDS011;3661;53.288;10.458;2023-08-30T10:51:56;1999.90;;;999.90;;
7239;SDS011;3661;53.288;10.458;2023-08-30T10:54:36;1999.90;;;999.90;;
7239;SDS011;3661;53.288;10.458;2023-08-30T10:57:14;1999.90;;;999.90;;
7239;SDS011;3661;53.288;10.458;2023-08-30T11:02:43;1999.90;;;999.90;;
7239;SDS011;3661;53.288;10.458;2023-08-30T11:05:16;1999.90;;;999.90;;
7239;SDS011;3661;53.288;10.458;2023-08-30T11:07:52;1999.90;;;999.90;;
7239;SDS011;3661;53.288;10.458;2023-08-30T11:10:24;1999.90;;;999.90;;
7239;SDS011;3661;53.288;10.458;2023-08-30T11:12:58;1999.90;;;999.90;;
7239;SDS011;3661;53.288;10.458;2023-08-30T11:15:33;1999.90;;;999.90;;
7239;SDS011;3661;53.288;10.458;2023-08-30T11:18:05;1999.90;;;999.90;;
7239;SDS011;3661;53.288;10.458;2023-08-30T11:20:38;1999.90;;;999.90;;
7239;SDS011;3661;53.288;10.458;2023-08-30T11:23:10;1999.90;;;999.90;;
7239;SDS011;3661;53.288;10.458;2023-08-30T11:25:43;1999.90;;;999.90;;
7239;SDS011;3661;53.288;10.458;2023-08-30T11:28:24;1999.90;;;999.90;;
7239;SDS011;3661;53.288;10.458;2023-08-30T11:30:58;1999.90;;;999.90;;
7239;SDS011;3661;53.288;10.458;2023-08-30T11:33:30;1999.90;;;999.90;;
7239;SDS011;3661;53.288;10.458;2023-08-30T11:36:04;1999.90;;;999.90;;
7239;SDS011;3661;53.288;10.458;2023-08-30T11:38:37;1999.90;;;999.90;;
7239;SDS011;3661;53.288;10.458;2023-08-30T11:41:12;1999.90;;;999.90;;
7239;SDS011;3661;53.288;10.458;2023-08-30T11:43:49;1999.90;;;999.90;;
7239;SDS011;3661;53.288;10.458;2023-08-30T11:46:21;1999.90;;;999.90;;
7239;SDS011;3661;53.288;10.458;2023-08-30T11:48:53;1999.90;;;999.90;;
7239;SDS011;3661;53.288;10.458;2023-08-30T11:51:26;1999.90;;;999.90;;
7239;SDS011;3661;53.288;10.458;2023-08-30T11:53:58;1999.90;;;999.90;;
7239;SDS011;3661;53.288;10.458;2023-08-30T11:56:32;1999.90;;;999.90;;
7239;SDS011;3661;53.288;10.458;2023-08-30T11:59:06;1999.90;;;999.90;;
7239;SDS011;3661;53.288;10.458;2023-08-30T12:01:49;1999.90;;;999.90;;
7239;SDS011;3661;53.288;10.458;2023-08-30T12:04:23;1999.90;;;999.90;;
7239;SDS011;3661;53.288;10.458;2023-08-30T12:06:55;1999.90;;;999.90;;
7239;SDS011;3661;53.288;10.458;2023-08-30T12:09:32;1999.90;;;999.90;;
7239;SDS011;3661;53.288;10.458;2023-08-30T12:12:05;1999.90;;;999.90;;
7239;SDS011;3661;53.288;10.458;2023-08-30T12:14:41;1999.90;;;999.90;;
7239;SDS011;3661;53.288;10.458;2023-08-30T12:17:14;1999.90;;;999.90;;
7239;SDS011;3661;53.288;10.458;2023-08-30T12:19:46;1999.90;;;999.90;;
7239;SDS011;3661;53.288;10.458;2023-08-30T12:22:35;1999.90;;;999.90;;
7239;SDS011;3661;53.288;10.458;2023-08-30T12:25:18;1999.90;;;999.90;;
7239;SDS011;3661;53.288;10.458;2023-08-30T12:27:50;1999.90;;;999.90;;
7239;SDS011;3661;53.288;10.458;2023-08-30T12:30:24;1999.90;;;999.90;;
7239;SDS011;3661;53.288;10.458;2023-08-30T12:33:00;1999.90;;;999.90;;
7239;SDS011;3661;53.288;10.458;2023-08-30T12:35:32;1999.90;;;999.90;;
7239;SDS011;3661;53.288;10.458;2023-08-30T12:38:04;1999.90;;;999.90;;
7239;SDS011;3661;53.288;10.458;2023-08-30T12:40:37;1999.90;;;999.90;;
7239;SDS011;3661;53.288;10.458;2023-08-30T12:43:09;1999.90;;;999.90;;
7239;SDS011;3661;53.288;10.458;2023-08-30T12:45:43;1999.90;;;999.90;;
7239;SDS011;3661;53.288;10.458;2023-08-30T12:48:17;1999.90;;;999.90;;
7239;SDS011;3661;53.288;10.458;2023-08-30T12:50:49;1999.90;;;999.90;;
7239;SDS011;3661;53.288;10.458;2023-08-30T12:53:21;1999.90;;;999.90;;
7239;SDS011;3661;53.288;10.458;2023-08-30T12:55:53;1999.90;;;999.90;;
7239;SDS011;3661;53.288;10.458;2023-08-30T12:58:26;1999.90;;;999.90;;
7239;SDS011;3661;53.288;10.458;2023-08-30T13:00:59;1999.90;;;999.90;;
7239;SDS011;3661;53.288;10.458;2023-08-30T13:03:31;1999.90;;;999.90;;
7239;SDS011;3661;53.288;10.458;2023-08-30T13:06:03;1999.90;;;999.90;;
7239;SDS011;3661;53.288;10.458;2023-08-30T13:08:36;1999.90;;;999.90;;
7239;SDS011;3661;53.288;10.458;2023-08-30T13:11:08;1999.90;;;999.90;;
7239;SDS011;3661;53.288;10.458;2023-08-30T13:13:40;1999.90;;;999.90;;
7239;SDS011;3661;53.288;10.458;2023-08-30T13:19:15;1999.90;;;999.90;;
7239;SDS011;3661;53.288;10.458;2023-08-30T13:21:47;1999.90;;;999.90;;
7239;SDS011;3661;53.288;10.458;2023-08-30T13:24:20;1999.90;;;999.90;;
7239;SDS011;3661;53.288;10.458;2023-08-30T13:26:52;1999.90;;;999.90;;
7239;SDS011;3661;53.288;10.458;2023-08-30T13:29:24;1999.90;;;999.90;;
7239;SDS011;3661;53.288;10.458;2023-08-30T13:31:56;1999.90;;;999.90;;
7239;SDS011;3661;53.288;10.458;2023-08-30T13:34:30;1999.90;;;999.90;;
7239;SDS011;3661;53.288;10.458;2023-08-30T13:37:06;1999.90;;;999.90;;
7239;SDS011;3661;53.288;10.458;2023-08-30T13:39:38;1999.90;;;999.90;;
7239;SDS011;3661;53.288;10.458;2023-08-30T13:42:17;1999.90;;;999.90;;
7239;SDS011;3661;53.288;10.458;2023-08-30T13:44:52;1999.90;;;999.90;;
7239;SDS011;3661;53.288;10.458;2023-08-30T13:47:28;1999.90;;;999.90;;
7239;SDS011;3661;53.288;10.458;2023-08-30T13:50:01;1999.90;;;999.90;;
7239;SDS011;3661;53.288;10.458;2023-08-30T13:52:36;1999.90;;;999.90;;
7239;SDS011;3661;53.288;10.458;2023-08-30T13:55:16;1999.90;;;999.90;;
7239;SDS011;3661;53.288;10.458;2023-08-30T13:57:51;1999.90;;;999.90;;
7239;SDS011;3661;53.288;10.458;2023-08-30T14:00:23;1999.90;;;999.90;;
7239;SDS011;3661;53.288;10.458;2023-08-30T14:02:55;1999.90;;;999.90;;
7239;SDS011;3661;53.288;10.458;2023-08-30T14:05:29;1999.90;;;999.90;;
7239;SDS011;3661;53.288;10.458;2023-08-30T14:08:01;1999.90;;;999.90;;
7239;SDS011;3661;53.288;10.458;2023-08-30T14:10:36;1999.90;;;999.90;;
7239;SDS011;3661;53.288;10.458;2023-08-30T14:13:08;1999.90;;;999.90;;
7239;SDS011;3661;53.288;10.458;2023-08-30T14:15:40;1999.90;;;999.90;;
7239;SDS011;3661;53.288;10.458;2023-08-30T14:18:15;1999.90;;;999.90;;
7239;SDS011;3661;53.288;10.458;2023-08-30T14:20:49;1999.90;;;999.90;;
7239;SDS011;3661;53.288;10.458;2023-08-30T14:23:21;1999.90;;;999.90;;
7239;SDS011;3661;53.288;10.458;2023-08-30T14:25:57;1999.90;;;999.90;;
7239;SDS011;3661;53.288;10.458;2023-08-30T14:28:35;1999.90;;;999.90;;
7239;SDS011;3661;53.288;10.458;2023-08-30T14:31:16;1999.90;;;999.90;;
7239;SDS011;3661;53.288;10.458;2023-08-30T14:33:49;1999.90;;;999.90;;
7239;SDS011;3661;53.288;10.458;2023-08-30T14:36:22;1999.90;;;999.90;;
7239;SDS011;3661;53.288;10.458;2023-08-30T14:38:54;1999.90;;;999.90;;
7239;SDS011;3661;53.288;10.458;2023-08-30T14:41:27;1999.90;;;999.90;;
7239;SDS011;3661;53.288;10.458;2023-08-30T14:43:59;1999.90;;;999.90;;
7239;SDS011;3661;53.288;10.458;2023-08-30T14:46:33;1999.90;;;999.90;;
7239;SDS011;3661;53.288;10.458;2023-08-30T14:49:05;1999.90;;;999.90;;
7239;SDS011;3661;53.288;10.458;2023-08-30T14:51:38;1999.90;;;999.90;;
7239;SDS011;3661;53.288;10.458;2023-08-30T14:54:11;1999.90;;;999.90;;
7239;SDS011;3661;53.288;10.458;2023-08-30T14:56:43;1999.90;;;999.90;;
7239;SDS011;3661;53.288;10.458;2023-08-30T14:59:17;1999.90;;;999.90;;
7239;SDS011;3661;53.288;10.458;2023-08-30T15:01:49;1999.90;;;999.90;;
7239;SDS011;3661;53.288;10.458;2023-08-30T15:04:21;1999.90;;;999.90;;
7239;SDS011;3661;53.288;10.458;2023-08-30T15:06:56;1999.90;;;999.90;;
7239;SDS011;3661;53.288;10.458;2023-08-30T15:09:29;1999.90;;;999.90;;
7239;SDS011;3661;53.288;10.458;2023-08-30T15:12:01;1999.90;;;999.90;;